Time;durP1;ratioP1;P1;durP2;ratioP2;P2;SDS_P1;SDS_P2;PMS_P1;PMS_P2;Temp;Humidity;BMP_temperature;BMP_pressure;BME280_temperature;BME280_humidity;BME280_pressure;Samples;Min_cycle;Max_cycle;Signal;HPM_P1;HPM_P2
2023/02/18 08:35:01;;;;;;;7.53;6.63;;;;;;;14.50;84.50;99368.88;5110183;28;20568;-83
2023/02/18 08:37:29;;;;;;;6.63;6.03;;;;;;;14.74;83.25;99387.63;5091981;28;38596;-84
2023/02/18 08:39:57;;;;;;;6.23;5.63;;;;;;;14.85;82.15;99374.38;5091645;28;40792;-84
2023/02/18 08:42:25;;;;;;;7.13;6.53;;;;;;;14.88;79.49;99373.31;5109168;28;41962;-84
2023/02/18 08:44:53;;;;;;;6.57;5.97;;;;;;;14.89;78.54;99367.88;5091964;28;42378;-84
2023/02/18 08:47:21;;;;;;;8.73;6.43;;;;;;;14.97;77.19;99383.31;5109460;28;38846;-82
2023/02/18 08:49:48;;;;;;;6.57;5.97;;;;;;;14.64;75.17;99355.44;5091641;28;40654;-85
2023/02/18 08:52:17;;;;;;;6.90;6.20;;;;;;;14.76;76.68;99380.38;5108631;28;41821;-83
2023/02/18 08:54:45;;;;;;;7.00;6.30;;;;;;;14.67;74.52;99387.22;5108266;28;42105;-87
2023/02/18 08:57:13;;;;;;;6.30;5.70;;;;;;;14.58;74.48;99384.34;5108982;28;38931;-85
2023/02/18 08:59:41;;;;;;;6.70;6.10;;;;;;;14.59;75.13;99384.22;5142971;27;41715;-83
2023/02/18 09:02:10;;;;;;;6.93;6.33;;;;;;;14.52;75.59;99366.97;5109028;28;42049;-83
2023/02/18 09:04:38;;;;;;;7.10;5.77;;;;;;;14.62;75.45;99377.81;5108678;28;42251;-84
2023/02/18 09:07:06;;;;;;;6.60;6.00;;;;;;;14.63;75.12;99396.38;5108587;28;39897;-85
2023/02/18 09:09:36;;;;;;;6.33;5.73;;;;;;;14.56;75.13;99373.78;5090756;28;41833;-83
2023/02/18 09:12:04;;;;;;;6.90;6.30;;;;;;;14.62;74.88;99383.16;5091135;28;42715;-84
2023/02/18 09:14:32;;;;;;;6.90;6.30;;;;;;;14.63;74.58;99396.38;5107980;28;42150;-84
2023/02/18 09:17:00;;;;;;;6.40;5.80;;;;;;;14.48;74.15;99381.47;5107995;28;38666;-83
2023/02/18 09:19:27;;;;;;;6.63;6.03;;;;;;;14.52;74.93;99382.97;5108088;28;42642;-83
2023/02/18 09:21:56;;;;;;;7.83;7.13;;;;;;;14.59;74.18;99400.22;5109510;28;42705;-84
2023/02/18 09:24:25;;;;;;;6.43;5.83;;;;;;;14.65;74.08;99415.78;5110050;28;42997;-83
2023/02/18 09:26:54;;;;;;;6.33;5.73;;;;;;;14.70;75.05;99399.50;5091338;28;39150;-83
2023/02/18 09:29:22;;;;;;;7.90;6.50;;;;;;;14.54;74.53;99378.38;5109214;28;42549;-83
2023/02/18 09:31:49;;;;;;;7.27;6.27;;;;;;;14.55;74.33;99393.41;5091050;28;41646;-83
2023/02/18 09:34:17;;;;;;;10.17;6.10;;;;;;;14.47;74.33;99377.09;5108801;28;43129;-83
2023/02/18 09:36:44;;;;;;;6.43;5.80;;;;;;;14.31;73.90;99345.31;5091198;28;38389;-83
2023/02/18 09:39:12;;;;;;;6.70;6.10;;;;;;;14.60;74.12;99371.75;5091292;28;40922;-83
2023/02/18 09:41:45;;;;;;;6.77;6.17;;;;;;;14.69;71.68;99385.31;5091413;28;42528;-85
2023/02/18 09:44:20;;;;;;;6.07;5.57;;;;;;;14.85;72.34;99395.72;5137906;27;42136;-83
2023/02/18 09:46:51;;;;;;;6.93;5.73;;;;;;;14.79;69.49;99408.63;5077633;28;39969;-81
2023/02/18 09:49:23;;;;;;;7.17;6.47;;;;;;;14.92;69.74;99423.66;5096958;28;40450;-85
2023/02/18 09:51:53;;;;;;;7.37;5.63;;;;;;;15.06;67.99;99425.34;5093023;28;43506;-83
2023/02/18 09:54:22;;;;;;;5.90;5.40;;;;;;;15.42;67.69;99412.00;5149452;27;43838;-83
2023/02/18 09:56:50;;;;;;;6.13;5.53;;;;;;;15.44;66.38;99396.72;5096656;28;39134;-83
2023/02/18 09:59:23;;;;;;;6.27;5.67;;;;;;;15.15;66.81;99365.13;5096925;28;40399;-82
2023/02/18 10:01:53;;;;;;;5.63;5.13;;;;;;;15.38;65.43;99415.84;5093335;28;43148;-82
2023/02/18 10:04:25;;;;;;;6.63;6.03;;;;;;;15.41;64.86;99399.63;5096113;28;41912;-85
2023/02/18 10:06:54;;;;;;;5.83;5.33;;;;;;;15.31;62.81;99411.94;5098100;28;39723;-83
2023/02/18 10:09:25;;;;;;;6.17;5.63;;;;;;;15.49;61.27;99438.22;5080227;28;41110;-84
2023/02/18 10:11:57;;;;;;;6.77;5.93;;;;;;;15.51;61.14;99415.78;5096323;28;43121;-86
2023/02/18 10:14:27;;;;;;;6.43;5.83;;;;;;;15.49;60.95;99390.16;5077770;28;41305;-83
2023/02/18 10:16:55;;;;;;;6.27;5.67;;;;;;;15.69;61.61;99403.78;5093644;28;40214;-84
2023/02/18 10:19:28;;;;;;;6.43;5.90;;;;;;;15.57;61.16;99395.84;5077054;28;40493;-83
2023/02/18 10:21:56;;;;;;;5.80;5.27;;;;;;;15.76;60.11;99423.72;5076760;28;41738;-84
2023/02/18 10:24:29;;;;;;;8.13;6.17;;;;;;;15.67;60.60;99407.53;5093892;28;41918;-85
2023/02/18 10:26:58;;;;;;;6.83;6.20;;;;;;;15.80;60.37;99403.00;5111101;28;39085;-86
2023/02/18 10:29:31;;;;;;;6.10;5.60;;;;;;;15.79;60.03;99393.28;5110889;28;40832;-82
2023/02/18 10:32:07;;;;;;;6.80;6.20;;;;;;;15.88;59.12;99408.59;5091118;28;42640;-84
2023/02/18 10:34:44;;;;;;;6.63;6.03;;;;;;;15.83;58.91;99397.38;5076343;28;42624;-87
2023/02/18 10:37:27;;;;;;;6.90;6.20;;;;;;;15.80;59.05;99392.31;5093983;28;40308;-84
2023/02/18 10:40:04;;;;;;;6.27;5.73;;;;;;;15.73;59.11;99383.03;5093789;28;41001;-84
2023/02/18 10:42:41;;;;;;;7.30;5.83;;;;;;;15.66;59.67;99403.16;5093569;28;41887;-83
2023/02/18 10:45:22;;;;;;;6.67;6.10;;;;;;;15.51;59.59;99409.59;5077041;28;41259;-85
2023/02/18 10:48:02;;;;;;;6.30;5.80;;;;;;;15.44;60.27;99404.72;5110699;28;39264;-86
2023/02/18 10:50:35;;;;;;;6.60;6.00;;;;;;;15.38;60.06;99382.97;5076609;28;40871;-84
2023/02/18 10:53:11;;;;;;;7.10;6.17;;;;;;;15.48;60.98;99377.78;5076397;28;43237;-84
2023/02/18 10:55:41;;;;;;;7.77;6.97;;;;;;;15.36;60.49;99390.22;5093129;28;41071;-85
2023/02/18 10:58:36;;;;;;;7.07;6.27;;;;;;;15.41;61.43;99382.75;5075886;28;39000;-82
2023/02/18 11:01:13;;;;;;;7.40;6.40;;;;;;;15.39;60.67;99377.50;5091448;28;41854;-82
2023/02/18 11:03:43;;;;;;;7.50;6.80;;;;;;;15.14;60.22;99363.41;5076208;28;41749;-83
2023/02/18 11:06:22;;;;;;;7.13;6.47;;;;;;;15.19;61.20;99366.63;5076031;28;41205;-83
2023/02/18 11:08:51;;;;;;;7.63;6.80;;;;;;;15.13;61.36;99357.22;5076127;28;39129;-83
2023/02/18 11:11:24;;;;;;;6.23;5.63;;;;;;;15.20;60.68;99376.31;5076201;28;41000;-86
2023/02/18 11:13:54;;;;;;;7.30;6.60;;;;;;;15.09;60.34;99353.06;5124229;27;42514;-88
2023/02/18 11:16:35;;;;;;;6.00;5.50;;;;;;;15.21;60.17;99345.97;5076445;28;42730;-86
2023/02/18 11:19:03;;;;;;;6.77;6.17;;;;;;;15.17;59.92;99353.38;5090103;28;39621;-82
2023/02/18 11:21:35;;;;;;;7.10;6.47;;;;;;;15.26;60.17;99363.38;5093736;28;41491;-86
2023/02/18 11:24:09;;;;;;;6.63;5.83;;;;;;;15.14;59.82;99347.41;5075853;28;41795;-84
2023/02/18 11:26:40;;;;;;;6.90;6.30;;;;;;;15.04;59.46;99348.09;5092597;28;41372;-84
2023/02/18 11:29:14;;;;;;;6.63;6.03;;;;;;;15.05;59.48;99351.63;5109991;28;38374;-82
2023/02/18 11:31:46;;;;;;;6.27;5.67;;;;;;;14.89;58.95;99311.00;5092700;28;40882;-84
2023/02/18 11:34:17;;;;;;;6.50;5.90;;;;;;;15.17;58.16;99358.72;5092435;28;41877;-85
2023/02/18 11:36:45;;;;;;;6.70;6.00;;;;;;;15.06;58.77;99339.97;5109342;28;42147;-83
2023/02/18 11:39:21;;;;;;;5.90;5.30;;;;;;;15.13;57.91;99341.22;5075421;28;38887;-83
2023/02/18 11:41:56;;;;;;;5.57;5.00;;;;;;;15.13;57.73;99335.03;5075589;28;42032;-85
2023/02/18 11:44:29;;;;;;;6.03;4.97;;;;;;;15.18;57.67;99323.06;5090606;28;43686;-82
2023/02/18 11:47:02;;;;;;;5.43;4.93;;;;;;;15.30;57.21;99348.84;5075551;28;41228;-84
2023/02/18 11:49:32;;;;;;;5.83;4.77;;;;;;;15.28;56.96;99334.75;5092880;28;40037;-85
2023/02/18 11:52:13;;;;;;;5.47;4.97;;;;;;;15.35;57.25;99341.34;5092554;28;41002;-84
2023/02/18 11:54:41;;;;;;;5.93;4.77;;;;;;;15.33;56.76;99308.56;5092425;28;41976;-82
2023/02/18 11:57:13;;;;;;;4.90;4.50;;;;;;;15.82;56.20;99316.41;5092231;28;42181;-84
2023/02/18 11:59:43;;;;;;;5.33;4.83;;;;;;;15.70;55.33;99325.34;5092635;28;40193;-86
2023/02/18 12:02:30;;;;;;;4.67;4.27;;;;;;;15.72;55.81;99331.44;5075155;28;41043;-84
2023/02/18 12:05:04;;;;;;;5.03;4.53;;;;;;;15.67;56.54;99330.09;5075379;28;42798;-87
2023/02/18 12:07:41;;;;;;;5.43;4.50;;;;;;;15.64;56.62;99325.00;5075175;28;41060;-84
2023/02/18 12:10:14;;;;;;;4.90;4.40;;;;;;;15.70;56.89;99333.38;5092474;28;38964;-87
2023/02/18 12:12:47;;;;;;;4.70;4.30;;;;;;;15.40;56.89;99312.50;5090778;28;41449;-84
2023/02/18 12:15:19;;;;;;;4.47;4.07;;;;;;;15.30;56.90;99322.16;5075045;28;41369;-83
2023/02/18 12:18:07;;;;;;;5.23;4.73;;;;;;;15.23;57.50;99314.72;5074776;28;41217;-83
2023/02/18 12:20:54;;;;;;;5.13;4.63;;;;;;;15.49;57.00;99342.13;5075283;28;38911;-83
2023/02/18 12:23:29;;;;;;;4.50;4.10;;;;;;;15.50;56.23;99323.31;5091699;28;41418;-83
2023/02/18 12:26:13;;;;;;;5.17;4.47;;;;;;;15.71;55.55;99337.75;5075136;28;43604;-86
2023/02/18 12:29:04;;;;;;;4.93;4.43;;;;;;;15.69;54.92;99322.84;5074643;28;41163;-85
2023/02/18 12:31:45;;;;;;;5.53;4.10;;;;;;;15.74;54.48;99317.97;5074919;28;38484;-84
2023/02/18 12:34:27;;;;;;;5.27;4.37;;;;;;;15.59;54.75;99301.28;5091930;28;40917;-83
2023/02/18 12:37:07;;;;;;;6.00;4.00;;;;;;;15.37;55.46;99296.69;5074579;28;43612;-86
2023/02/18 12:40:04;;;;;;;4.77;4.27;;;;;;;15.21;55.55;99285.47;5088767;28;42341;-83
2023/02/18 12:42:50;;;;;;;4.13;3.70;;;;;;;15.32;54.89;99308.72;5074890;28;38306;-86
2023/02/18 12:45:39;;;;;;;3.40;3.10;;;;;;;15.42;54.35;99299.03;5089885;28;41880;-85
2023/02/18 12:48:35;;;;;;;4.23;3.83;;;;;;;15.66;52.97;99318.56;5091065;28;42881;-85
2023/02/18 12:51:22;;;;;;;5.87;3.47;;;;;;;15.94;53.42;99317.31;5074921;28;42160;-87
2023/02/18 12:54:05;;;;;;;3.93;3.30;;;;;;;15.99;52.38;99320.47;5091531;28;39921;-85
2023/02/18 12:56:58;;;;;;;4.20;3.90;;;;;;;15.84;52.85;99328.81;5074573;28;42446;-86
2023/02/18 12:59:56;;;;;;;5.80;3.97;;;;;;;15.69;53.32;99318.34;5071959;28;42749;-84
2023/02/18 13:02:49;;;;;;;6.13;3.73;;;;;;;15.30;53.38;99311.50;5024596;28;41150;-83
2023/02/18 13:05:31;;;;;;;3.57;3.20;;;;;;;15.40;54.42;99323.16;5074813;28;38731;-86
2023/02/18 13:08:15;;;;;;;4.10;2.77;;;;;;;15.32;54.18;99306.03;5091732;28;41164;-82
2023/02/18 13:10:57;;;;;;;3.77;3.17;;;;;;;15.32;54.29;99330.91;5086398;28;43159;-84
2023/02/18 13:13:29;;;;;;;3.13;2.87;;;;;;;15.41;54.73;99324.03;5074080;28;41220;-83
2023/02/18 13:16:01;;;;;;;2.83;2.63;;;;;;;15.57;54.43;99324.63;5074259;28;40642;-84
2023/02/18 13:18:33;;;;;;;4.93;3.00;;;;;;;15.53;54.81;99300.91;5091365;28;42095;-82
2023/02/18 13:21:04;;;;;;;3.20;2.90;;;;;;;15.64;54.27;99319.66;5076783;28;43027;-83
2023/02/18 13:23:38;;;;;;;3.33;3.03;;;;;;;15.69;55.00;99322.84;5111465;28;42073;-83
2023/02/18 13:26:11;;;;;;;5.00;3.40;;;;;;;15.62;54.39;99313.56;5092738;28;39869;-85
2023/02/18 13:28:46;;;;;;;4.73;3.10;;;;;;;15.51;54.87;99302.81;5094641;28;41718;-84
2023/02/18 13:31:32;;;;;;;4.73;3.40;;;;;;;15.50;54.78;99309.13;5091860;28;43030;-82
2023/02/18 13:34:07;;;;;;;3.23;3.00;;;;;;;15.39;55.54;99316.13;5111213;28;42160;-83
2023/02/18 13:36:47;;;;;;;4.37;3.13;;;;;;;15.34;55.89;99323.63;5077514;28;39081;-87
2023/02/18 13:39:20;;;;;;;4.13;2.87;;;;;;;15.20;55.83;99315.81;5111688;28;40954;-83
2023/02/18 13:41:49;;;;;;;3.63;3.13;;;;;;;15.02;55.82;99315.34;5092188;28;42883;-82
2023/02/18 13:45:01;;;;;;;3.13;2.83;;;;;;;15.04;56.56;99315.22;5078675;28;41185;-82
2023/02/18 13:47:37;;;;;;;2.90;2.60;;;;;;;14.89;56.97;99308.34;5049753;28;40814;-83
2023/02/18 13:50:24;;;;;;;2.77;2.57;;;;;;;14.83;57.09;99300.81;5077386;28;40998;-86
2023/02/18 13:53:00;;;;;;;3.10;2.80;;;;;;;14.77;57.47;99285.25;5094258;28;42113;-82
2023/02/18 13:55:39;;;;;;;3.83;3.43;;;;;;;14.63;57.60;99265.75;5112137;28;41365;-82
2023/02/18 13:58:16;;;;;;;4.10;3.17;;;;;;;14.66;57.02;99292.22;5093717;28;39729;-84
2023/02/18 14:00:50;;;;;;;3.50;3.20;;;;;;;14.50;58.04;99294.25;5092377;28;42723;-83
2023/02/18 14:03:32;;;;;;;4.60;2.90;;;;;;;14.59;58.05;99298.91;5077784;28;42916;-83
2023/02/18 14:06:00;;;;;;;3.87;2.90;;;;;;;14.59;58.58;99309.59;5092238;28;42405;-83
2023/02/18 14:08:33;;;;;;;3.33;2.80;;;;;;;14.68;58.87;99292.09;5077187;28;39212;-85
2023/02/18 14:11:41;;;;;;;3.40;3.10;;;;;;;14.68;59.63;99282.28;5093905;28;41698;-83
2023/02/18 14:14:34;;;;;;;3.10;2.80;;;;;;;14.65;59.73;99277.16;5077124;28;41640;-83
2023/02/18 14:17:34;;;;;;;4.43;3.40;;;;;;;14.78;59.33;99298.47;5076696;28;41885;-84
2023/02/18 14:20:39;;;;;;;3.10;2.80;;;;;;;14.90;59.49;99296.72;5077370;28;39088;-84
2023/02/18 14:23:13;;;;;;;3.13;2.80;;;;;;;15.00;59.87;99287.06;5069917;28;41102;-81
2023/02/18 14:25:42;;;;;;;4.27;3.60;;;;;;;14.96;59.68;99288.28;5076961;28;41992;-85
2023/02/18 14:28:40;;;;;;;4.00;3.57;;;;;;;14.95;59.78;99284.75;5093602;28;42220;-84
2023/02/18 14:31:25;;;;;;;2.80;2.60;;;;;;;14.91;59.46;99287.75;5076721;28;40900;-81
2023/02/18 14:34:20;;;;;;;3.77;3.17;;;;;;;14.73;59.87;99295.25;5110788;28;40698;-85
2023/02/18 14:36:56;;;;;;;3.33;3.03;;;;;;;14.71;60.21;99292.72;5076443;28;41953;-82
2023/02/18 14:39:42;;;;;;;4.50;4.10;;;;;;;14.49;60.79;99255.25;5090587;28;43290;-85
2023/02/18 14:42:20;;;;;;;4.47;4.03;;;;;;;14.56;61.10;99266.31;5075438;28;38779;-83
2023/02/18 14:45:08;;;;;;;4.20;3.80;;;;;;;14.55;60.98;99275.28;5076525;28;40853;-82
2023/02/18 14:47:49;;;;;;;4.10;3.70;;;;;;;14.53;61.24;99283.38;5071436;28;42078;-84
2023/02/18 14:50:20;;;;;;;4.27;3.80;;;;;;;14.52;62.02;99287.00;5076453;28;42005;-82
2023/02/18 14:52:50;;;;;;;4.40;3.97;;;;;;;14.54;61.50;99274.44;5093090;28;39327;-83
2023/02/18 14:55:23;;;;;;;3.80;3.50;;;;;;;14.72;61.99;99289.06;5093579;28;41686;-82
2023/02/18 14:57:56;;;;;;;4.17;3.77;;;;;;;14.77;61.06;99274.56;5093421;28;41494;-85
2023/02/18 15:00:30;;;;;;;4.43;3.90;;;;;;;14.57;61.50;99247.56;5091298;28;42065;-83
2023/02/18 15:03:00;;;;;;;5.07;4.37;;;;;;;14.62;61.76;99261.38;5076149;28;39960;-82
2023/02/18 15:05:31;;;;;;;4.43;3.70;;;;;;;14.78;61.90;99289.59;5093109;28;42218;-82
2023/02/18 15:08:01;;;;;;;5.03;3.63;;;;;;;14.78;62.13;99286.94;5127514;27;42545;-82
2023/02/18 15:10:39;;;;;;;4.40;4.10;;;;;;;14.73;62.10;99288.13;5092868;28;40815;-83
2023/02/18 15:13:13;;;;;;;4.87;3.83;;;;;;;14.59;62.34;99298.06;5126762;27;40003;-85
2023/02/18 15:15:44;;;;;;;8.33;5.33;;;;;;;14.40;62.61;99295.03;5075938;28;43544;-87
2023/02/18 15:18:23;;;;;;;4.07;3.77;;;;;;;14.27;63.13;99290.53;5075952;28;42055;-82
2023/02/18 15:20:52;;;;;;;7.73;3.93;;;;;;;14.11;63.63;99292.56;5092777;28;42182;-87
2023/02/18 15:23:20;;;;;;;4.33;3.93;;;;;;;14.00;64.28;99276.50;5075997;28;38963;-83
2023/02/18 15:25:51;;;;;;;4.23;3.80;;;;;;;13.89;64.40;99269.25;5092541;28;41860;-84
2023/02/18 15:28:23;;;;;;;4.03;3.60;;;;;;;14.00;64.27;99279.16;5092829;28;41953;-85
2023/02/18 15:30:52;;;;;;;4.30;3.90;;;;;;;13.92;64.52;99282.34;5075863;28;40986;-82
2023/02/18 15:33:21;;;;;;;4.90;4.50;;;;;;;13.87;64.49;99281.81;5092051;28;40289;-82
2023/02/18 15:35:49;;;;;;;3.70;3.40;;;;;;;13.69;65.06;99263.59;5075604;28;40803;-81
2023/02/18 15:38:19;;;;;;;3.70;3.40;;;;;;;13.65;65.25;99263.81;5092497;28;43709;-82
2023/02/18 15:40:52;;;;;;;4.17;3.80;;;;;;;13.75;65.84;99290.63;5093263;28;42262;-82
2023/02/18 15:43:23;;;;;;;4.27;3.87;;;;;;;13.63;65.92;99264.88;5092210;28;38450;-83
2023/02/18 15:45:55;;;;;;;4.03;3.63;;;;;;;13.71;66.27;99277.66;5075850;28;40662;-84
2023/02/18 15:48:32;;;;;;;4.43;4.03;;;;;;;13.61;67.00;99282.75;5109441;28;41688;-82
2023/02/18 15:51:05;;;;;;;4.40;3.80;;;;;;;13.56;67.44;99284.88;5075785;28;41164;-83
2023/02/18 15:53:36;;;;;;;4.47;3.73;;;;;;;13.38;67.60;99259.50;5109155;28;38947;-82
2023/02/18 15:56:07;;;;;;;3.97;3.60;;;;;;;13.44;68.13;99283.06;5089085;28;41916;-81
2023/02/18 15:58:35;;;;;;;4.43;3.90;;;;;;;13.37;68.51;99268.44;5091984;28;42199;-82
2023/02/18 16:01:06;;;;;;;5.27;4.00;;;;;;;13.36;68.70;99272.06;5093186;28;42980;-82
2023/02/18 16:03:45;;;;;;;5.80;4.10;;;;;;;13.27;69.16;99274.38;5093115;28;40034;-82
2023/02/18 16:06:21;;;;;;;4.63;3.73;;;;;;;13.20;69.52;99275.75;5092190;28;40578;-83
2023/02/18 16:08:58;;;;;;;4.17;3.77;;;;;;;13.23;70.15;99283.50;5092509;28;41913;-82
2023/02/18 16:11:29;;;;;;;4.30;3.83;;;;;;;13.05;70.24;99257.28;5089950;28;42594;-83
2023/02/18 16:13:58;;;;;;;5.40;3.70;;;;;;;13.03;70.36;99254.72;5090293;28;39600;-82
2023/02/18 16:16:32;;;;;;;3.87;3.53;;;;;;;13.12;71.09;99283.34;5074933;28;41112;-83
2023/02/18 16:19:00;;;;;;;3.93;3.53;;;;;;;13.10;71.02;99281.75;5123349;27;42595;-83
2023/02/18 16:21:37;;;;;;;4.53;3.50;;;;;;;13.06;71.24;99286.41;5091556;28;41023;-84
2023/02/18 16:24:25;;;;;;;4.63;4.23;;;;;;;12.93;72.20;99283.72;5075145;28;38714;-81
2023/02/18 16:26:54;;;;;;;6.03;3.70;;;;;;;12.89;71.97;99287.50;5089288;28;41225;-83
2023/02/18 16:29:26;;;;;;;4.50;3.73;;;;;;;12.80;71.99;99268.66;5092181;28;42665;-81
2023/02/18 16:31:55;;;;;;;4.87;4.40;;;;;;;12.84;72.69;99286.97;5092964;28;41680;-83
2023/02/18 16:34:23;;;;;;;4.57;3.90;;;;;;;12.83;72.76;99284.41;5109017;28;38872;-84
2023/02/18 16:39:36;;;;;;;4.17;3.60;;;;;;;12.77;73.42;99279.47;5075674;28;41284;-85
2023/02/18 16:42:06;;;;;;;4.27;3.87;;;;;;;12.75;73.30;99295.53;5074442;28;42318;-83
2023/02/18 16:44:34;;;;;;;3.63;3.33;;;;;;;12.63;73.46;99274.19;5091785;28;39298;-82
2023/02/18 16:47:03;;;;;;;3.87;3.27;;;;;;;12.75;73.72;99297.31;5091711;28;41903;-82
2023/02/18 16:49:32;;;;;;;4.00;3.53;;;;;;;12.71;74.16;99295.84;5108769;28;42721;-83
2023/02/18 16:52:01;;;;;;;4.57;3.87;;;;;;;12.66;74.14;99309.41;5074354;28;41287;-83
2023/02/18 16:54:29;;;;;;;4.00;3.60;;;;;;;12.58;74.25;99291.31;5092051;28;41003;-84
2023/02/18 16:56:57;;;;;;;5.60;3.73;;;;;;;12.71;74.18;99306.47;5095288;28;41035;-82
2023/02/18 16:59:24;;;;;;;4.13;3.83;;;;;;;12.68;74.47;99304.00;5096391;28;42705;-83
2023/02/18 17:01:52;;;;;;;5.07;3.63;;;;;;;12.55;74.57;99282.66;5095382;28;42175;-82
2023/02/18 17:04:22;;;;;;;4.00;3.70;;;;;;;12.61;74.37;99298.19;5095613;28;40039;-83
2023/02/18 17:06:50;;;;;;;3.90;3.60;;;;;;;12.46;74.96;99270.84;5095021;28;42796;-83
2023/02/18 17:09:20;;;;;;;3.77;3.47;;;;;;;12.64;75.36;99311.31;5078466;28;44470;-82
2023/02/18 17:11:52;;;;;;;5.20;3.80;;;;;;;12.52;75.33;99296.13;5094817;28;41301;-83
2023/02/18 17:14:21;;;;;;;4.00;3.40;;;;;;;12.62;75.79;99313.19;5095300;28;39213;-82
2023/02/18 17:16:52;;;;;;;4.53;4.10;;;;;;;12.58;75.97;99323.19;5094711;28;40717;-82
2023/02/18 17:19:22;;;;;;;4.30;3.70;;;;;;;12.59;76.31;99326.69;5111995;28;41770;-83
2023/02/18 17:21:50;;;;;;;4.87;3.73;;;;;;;12.57;76.50;99326.78;5111814;28;40818;-81
2023/02/18 17:24:19;;;;;;;4.43;3.37;;;;;;;12.56;76.70;99329.53;5110856;28;41439;-81
2023/02/18 17:26:47;;;;;;;4.57;3.23;;;;;;;12.56;76.59;99329.53;5114128;28;42315;-81
2023/02/18 17:29:15;;;;;;;4.37;3.97;;;;;;;12.55;76.93;99328.69;5113531;28;43175;-83
2023/02/18 17:31:46;;;;;;;4.57;4.13;;;;;;;12.51;77.01;99326.31;5113855;28;43134;-83
2023/02/18 17:34:19;;;;;;;5.37;4.20;;;;;;;12.50;77.86;99328.13;5112846;28;39793;-80
2023/02/18 17:36:48;;;;;;;5.27;4.10;;;;;;;12.46;78.07;99329.28;5093010;28;41684;-82
2023/02/18 17:39:17;;;;;;;5.53;4.30;;;;;;;12.35;78.21;99314.97;5094676;28;42049;-83
2023/02/18 17:41:45;;;;;;;5.40;4.43;;;;;;;12.37;78.35;99327.16;5077433;28;42233;-81
2023/02/18 17:44:16;;;;;;;5.07;3.83;;;;;;;12.40;78.76;99337.63;5078096;28;40220;-83
2023/02/18 17:46:44;;;;;;;5.90;4.50;;;;;;;12.36;78.47;99343.22;5110985;28;40830;-82
2023/02/18 17:49:12;;;;;;;5.10;4.60;;;;;;;12.40;78.48;99347.38;5095507;28;43268;-82
2023/02/18 17:51:39;;;;;;;7.63;5.40;;;;;;;12.24;78.85;99323.56;5077123;28;40932;-82
2023/02/18 17:54:13;;;;;;;5.00;4.23;;;;;;;12.27;78.61;99326.03;5094301;28;38794;-81
2023/02/18 17:56:42;;;;;;;4.30;3.90;;;;;;;12.21;78.25;99318.47;5077088;28;40501;-83
2023/02/18 17:59:10;;;;;;;5.60;4.60;;;;;;;12.27;78.54;99333.16;5077170;28;43094;-82
2023/02/18 18:01:37;;;;;;;4.93;4.43;;;;;;;12.21;78.23;99319.31;5093812;28;42238;-81
2023/02/18 18:04:10;;;;;;;5.13;4.27;;;;;;;12.29;78.33;99332.13;5094051;28;38665;-83
2023/02/18 18:06:38;;;;;;;5.00;3.87;;;;;;;12.29;77.92;99326.81;5110543;27;42400;-82
2023/02/18 18:09:06;;;;;;;5.10;4.33;;;;;;;12.13;78.05;99316.28;5128047;27;42797;-81
2023/02/18 18:11:36;;;;;;;4.67;4.23;;;;;;;12.14;78.13;99319.78;5093938;28;42290;-82
2023/02/18 18:14:04;;;;;;;5.90;3.63;;;;;;;12.27;77.98;99336.66;5094160;28;39096;-82
2023/02/18 18:16:32;;;;;;;5.73;3.80;;;;;;;12.16;77.60;99320.53;5110644;28;41752;-82
2023/02/18 18:18:59;;;;;;;3.77;3.40;;;;;;;12.20;77.54;99332.69;5076615;28;41644;-81
2023/02/18 18:21:31;;;;;;;4.73;4.20;;;;;;;12.24;77.30;99331.53;5076565;28;41213;-83
2023/02/18 18:23:59;;;;;;;5.80;4.07;;;;;;;12.21;77.21;99335.25;5093767;28;39005;-83
2023/02/18 18:26:27;;;;;;;5.70;4.40;;;;;;;11.92;77.05;99290.19;5093634;28;40790;-83
2023/02/18 18:28:57;;;;;;;5.37;4.10;;;;;;;12.23;76.86;99335.16;5093747;28;44083;-82
2023/02/18 18:31:24;;;;;;;4.97;4.13;;;;;;;12.14;76.73;99317.13;5093564;28;42261;-81
2023/02/18 18:33:52;;;;;;;4.97;4.23;;;;;;;12.13;76.89;99324.22;5076486;28;39817;-82
2023/02/18 18:36:22;;;;;;;4.80;3.83;;;;;;;12.26;76.61;99348.22;5093876;28;41614;-82
2023/02/18 18:38:50;;;;;;;4.40;4.00;;;;;;;12.25;76.45;99341.22;5093339;28;41743;-81
2023/02/18 18:41:21;;;;;;;6.23;4.43;;;;;;;12.26;76.45;99347.38;5093558;28;42484;-82
2023/02/18 18:43:49;;;;;;;4.53;4.13;;;;;;;12.27;76.62;99341.97;5093288;28;40320;-82
2023/02/18 18:46:19;;;;;;;4.43;4.00;;;;;;;12.14;76.71;99328.59;5094597;28;42771;-83
2023/02/18 18:48:47;;;;;;;4.60;4.00;;;;;;;12.27;76.44;99339.31;5092916;28;43233;-80
2023/02/18 18:51:16;;;;;;;4.90;4.03;;;;;;;12.17;76.66;99335.53;5110434;28;42409;-85
2023/02/18 18:53:44;;;;;;;4.60;4.17;;;;;;;12.14;76.91;99333.06;5075884;28;40131;-80
2023/02/18 18:56:13;;;;;;;5.00;4.40;;;;;;;12.18;76.48;99340.75;5092918;28;41502;-82
2023/02/18 18:58:41;;;;;;;3.80;3.50;;;;;;;12.29;76.47;99348.06;5075722;28;41869;-82
2023/02/18 19:01:16;;;;;;;4.53;4.13;;;;;;;12.32;76.54;99339.91;5093225;28;42442;-83
2023/02/18 19:03:47;;;;;;;4.60;4.10;;;;;;;12.29;76.27;99348.06;5093143;28;40917;-83
2023/02/18 19:06:16;;;;;;;6.03;4.30;;;;;;;12.30;76.12;99344.44;5076059;28;40753;-82
2023/02/18 19:08:46;;;;;;;5.50;5.00;;;;;;;12.33;76.27;99352.25;5092511;28;41768;-82
2023/02/18 19:11:15;;;;;;;5.30;4.27;;;;;;;12.30;76.37;99349.75;5092743;28;42514;-85
2023/02/18 19:13:44;;;;;;;6.17;5.57;;;;;;;12.32;76.05;99341.69;5109641;28;39782;-82
2023/02/18 19:16:18;;;;;;;4.97;4.37;;;;;;;12.21;76.42;99331.75;5092997;28;41689;-82
2023/02/18 19:18:49;;;;;;;5.47;4.97;;;;;;;12.30;76.35;99349.75;5074466;28;43722;-83
2023/02/18 19:21:16;;;;;;;5.13;4.03;;;;;;;12.21;75.79;99329.94;5093263;28;41884;-81
2023/02/18 19:23:44;;;;;;;4.80;4.17;;;;;;;12.33;76.00;99354.91;5092586;28;40263;-82
2023/02/18 19:26:14;;;;;;;5.27;4.30;;;;;;;12.33;75.71;99359.34;5075503;28;42983;-80
2023/02/18 19:28:43;;;;;;;4.37;3.97;;;;;;;12.33;75.80;99348.72;5126628;27;42913;-87
2023/02/18 19:31:10;;;;;;;5.93;4.10;;;;;;;12.11;75.73;99320.00;5092517;28;40893;-83
2023/02/18 19:33:39;;;;;;;4.47;3.90;;;;;;;12.30;75.39;99343.59;5075130;28;39192;-84
2023/02/18 19:36:10;;;;;;;4.20;3.80;;;;;;;12.27;75.17;99352.59;5109534;28;40934;-82
2023/02/18 19:38:39;;;;;;;4.20;3.80;;;;;;;12.25;75.05;99357.16;5092025;28;43575;-82
2023/02/18 19:41:10;;;;;;;4.43;4.03;;;;;;;12.17;74.41;99343.50;5092246;28;41420;-82
2023/02/18 19:43:39;;;;;;;4.03;3.53;;;;;;;12.21;74.27;99355.66;5075755;28;38687;-83
2023/02/18 19:46:08;;;;;;;4.10;3.70;;;;;;;12.03;74.46;99330.19;5109557;28;40583;-85
2023/02/18 19:48:37;;;;;;;3.83;3.53;;;;;;;12.17;73.98;99344.34;5092241;28;42805;-83
2023/02/18 19:51:06;;;;;;;4.47;3.70;;;;;;;12.29;73.74;99363.97;5092405;28;42368;-83
2023/02/18 19:53:35;;;;;;;4.77;3.90;;;;;;;12.18;73.44;99339.91;5075229;28;39965;-82
2023/02/18 19:56:06;;;;;;;3.93;3.63;;;;;;;12.13;73.13;99326.03;5093161;28;41863;-82
